Wetterdaten: Woche 18.07.16 - 24.07.16 (KW29)
Datum Zeit Temp. I. Temp. A. Feuchte I. Feuchte A. Luftdruck Regen Wind Richtung Sonnenschein UV Solar Taupunkt Windchill Windben
18.07.2016 00:00 24,9 C 17,5 C 59 % 93 % 1019,6 hPa 0,0 l/m 0,0 km/h (0 Bft) N 0,00 h 0,0 UV-I 0 W/m 16,3 C 17,5 C 0,0 km/h (0 Bft)
18.07.2016 01:00 24,8 C 17,3 C 60 % 92 % 1019,6 hPa 0,0 l/m 0,0 km/h (0 Bft) N 0,00 h 0,0 UV-I 0 W/m 16,0 C 17,3 C 0,1 km/h (0 Bft)
18.07.2016 02:00 24,8 C 17,1 C 60 % 93 % 1019,6 hPa 0,0 l/m 0,1 km/h (0 Bft) SW 0,00 h 0,0 UV-I 0 W/m 15,9 C 17,1 C 0,3 km/h (0 Bft)
18.07.2016 03:00 24,8 C 16,9 C 60 % 93 % 1019,4 hPa 0,0 l/m 0,0 km/h (0 Bft) N 0,00 h 0,0 UV-I 0 W/m 15,7 C 16,9 C 0,0 km/h (0 Bft)
18.07.2016 04:00 24,8 C 16,7 C 60 % 93 % 1019,4 hPa 0,0 l/m 0,0 km/h (0 Bft) N 0,00 h 0,0 UV-I 0 W/m 15,6 C 16,7 C 0,0 km/h (0 Bft)
18.07.2016 05:00 24,7 C 16,0 C 60 % 93 % 1019,5 hPa 0,0 l/m 0,0 km/h (0 Bft) N 0,00 h 0,0 UV-I 7 W/m 14,8 C 16,0 C 0,0 km/h (0 Bft)
18.07.2016 06:00 24,7 C 15,3 C 60 % 93 % 1019,8 hPa 0,0 l/m 0,0 km/h (0 Bft) N 0,00 h 0,0 UV-I 25 W/m 14,2 C 15,3 C 0,0 km/h (0 Bft)
18.07.2016 07:00 24,7 C 16,0 C 60 % 94 % 1020,0 hPa 0,0 l/m 0,1 km/h (0 Bft) W 0,07 h 0,7 UV-I 90 W/m 15,1 C 16,0 C 0,3 km/h (0 Bft)
18.07.2016 08:00 24,8 C 17,6 C 60 % 88 % 1020,3 hPa 0,0 l/m 0,3 km/h (0 Bft) S-SW 0,57 h 1,2 UV-I 208 W/m 15,5 C 17,6 C 1,0 km/h (0 Bft)
18.07.2016 09:00 25,0 C 19,5 C 60 % 76 % 1020,4 hPa 0,0 l/m 1,5 km/h (1 Bft) W-NW 0,77 h 2,4 UV-I 470 W/m 15,2 C 19,4 C 3,6 km/h (1 Bft)
18.07.2016 10:00 25,1 C 21,0 C 60 % 64 % 1020,2 hPa 0,0 l/m 3,0 km/h (1 Bft) W-NW 0,95 h 4,1 UV-I 597 W/m 14,0 C 20,9 C 6,5 km/h (2 Bft)
18.07.2016 11:00 25,1 C 22,9 C 60 % 55 % 1020,3 hPa 0,0 l/m 3,9 km/h (1 Bft) W-NW 1,00 h 5,8 UV-I 802 W/m 13,3 C 22,9 C 8,3 km/h (2 Bft)
18.07.2016 12:00 25,1 C 24,2 C 58 % 49 % 1020,2 hPa 0,0 l/m 4,3 km/h (1 Bft) W 1,00 h 6,8 UV-I 834 W/m 12,6 C 24,0 C 10,3 km/h (2 Bft)
18.07.2016 13:00 25,3 C 25,2 C 58 % 43 % 1020,0 hPa 0,0 l/m 4,4 km/h (1 Bft) W-NW 1,00 h 6,8 UV-I 819 W/m 11,8 C 25,0 C 9,5 km/h (2 Bft)
18.07.2016 14:00 25,4 C 25,8 C 57 % 43 % 1019,8 hPa 0,0 l/m 5,1 km/h (1 Bft) W 1,00 h 6,7 UV-I 869 W/m 12,3 C 25,6 C 10,3 km/h (2 Bft)
18.07.2016 15:00 25,2 C 25,7 C 57 % 44 % 1019,5 hPa 0,0 l/m 4,7 km/h (1 Bft) W-NW 1,00 h 5,1 UV-I 738 W/m 12,6 C 25,6 C 10,6 km/h (2 Bft)
18.07.2016 16:00 25,1 C 25,3 C 57 % 46 % 1019,4 hPa 0,0 l/m 5,2 km/h (1 Bft) NW 0,63 h 3,1 UV-I 362 W/m 12,6 C 25,2 C 10,7 km/h (2 Bft)
18.07.2016 17:00 25,1 C 25,3 C 57 % 46 % 1019,1 hPa 0,0 l/m 5,3 km/h (1 Bft) NW 0,88 h 2,0 UV-I 370 W/m 12,8 C 25,1 C 11,4 km/h (2 Bft)
18.07.2016 18:00 25,1 C 24,4 C 57 % 49 % 1019,0 hPa 0,0 l/m 4,0 km/h (1 Bft) NW 0,00 h 0,9 UV-I 90 W/m 13,0 C 24,3 C 8,6 km/h (2 Bft)
18.07.2016 19:00 25,3 C 23,8 C 57 % 52 % 1019,1 hPa 0,0 l/m 2,8 km/h (1 Bft) N 0,00 h 0,6 UV-I 72 W/m 13,4 C 23,8 C 6,6 km/h (2 Bft)
18.07.2016 20:00 25,3 C 22,2 C 57 % 58 % 1019,4 hPa 0,0 l/m 1,8 km/h (1 Bft) N 0,00 h 0,0 UV-I 20 W/m 13,6 C 22,2 C 4,0 km/h (1 Bft)
18.07.2016 21:00 25,5 C 20,2 C 57 % 66 % 1020,0 hPa 0,0 l/m 0,0 km/h (0 Bft) N 0,00 h 0,0 UV-I 5 W/m 13,5 C 20,2 C 0,0 km/h (0 Bft)
18.07.2016 22:00 25,4 C 18,0 C 57 % 77 % 1020,3 hPa 0,0 l/m 0,0 km/h (0 Bft) N 0,00 h 0,0 UV-I 0 W/m 13,9 C 18,0 C 0,0 km/h (0 Bft)
18.07.2016 23:00 25,2 C 16,3 C 57 % 85 % 1020,5 hPa 0,0 l/m 0,0 km/h (0 Bft) N 0,00 h 0,0 UV-I 0 W/m 13,8 C 16,3 C 0,0 km/h (0 Bft)
19.07.2016 00:00 25,1 C 15,2 C 58 % 89 % 1020,8 hPa 0,0 l/m 0,0 km/h (0 Bft) N 0,00 h 0,0 UV-I 0 W/m 13,4 C 15,2 C 0,0 km/h (0 Bft)
19.07.2016 01:00 25,0 C 14,3 C 58 % 91 % 1020,8 hPa 0,0 l/m 0,0 km/h (0 Bft) N 0,00 h 0,0 UV-I 0 W/m 12,9 C 14,3 C 0,0 km/h (0 Bft)
19.07.2016 02:00 25,0 C 13,6 C 58 % 92 % 1020,8 hPa 0,0 l/m 0,0 km/h (0 Bft) N 0,00 h 0,0 UV-I 0 W/m 12,4 C 13,6 C 0,0 km/h (0 Bft)
19.07.2016 03:00 25,1 C 13,0 C 58 % 93 % 1020,8 hPa 0,0 l/m 0,0 km/h (0 Bft) N 0,00 h 0,0 UV-I 0 W/m 11,8 C 13,0 C 0,0 km/h (0 Bft)
19.07.2016 04:00 25,1 C 12,7 C 58 % 92 % 1020,9 hPa 0,0 l/m 0,0 km/h (0 Bft) N 0,00 h 0,0 UV-I 0 W/m 11,5 C 12,7 C 0,0 km/h (0 Bft)
19.07.2016 05:00 25,0 C 12,2 C 59 % 92 % 1021,0 hPa 0,0 l/m 0,0 km/h (0 Bft) N 0,00 h 0,0 UV-I 8 W/m 11,0 C 12,2 C 0,0 km/h (0 Bft)
19.07.2016 06:00 25,0 C 12,1 C 59 % 93 % 1021,1 hPa 0,0 l/m 0,0 km/h (0 Bft) N 0,00 h 0,0 UV-I 18 W/m 11,1 C 12,1 C 0,0 km/h (0 Bft)
19.07.2016 07:00 24,9 C 14,0 C 59 % 93 % 1021,3 hPa 0,0 l/m 0,0 km/h (0 Bft) N 0,50 h 0,8 UV-I 152 W/m 12,8 C 14,0 C 0,0 km/h (0 Bft)
19.07.2016 08:00 25,0 C 18,5 C 59 % 79 % 1021,4 hPa 0,0 l/m 0,0 km/h (0 Bft) N 1,00 h 1,6 UV-I 416 W/m 14,7 C 18,5 C 0,0 km/h (0 Bft)
19.07.2016 09:00 25,1 C 21,5 C 59 % 67 % 1021,3 hPa 0,0 l/m 0,2 km/h (0 Bft) W 1,00 h 2,8 UV-I 571 W/m 15,1 C 21,5 C 0,5 km/h (0 Bft)
19.07.2016 10:00 25,2 C 23,7 C 59 % 58 % 1021,1 hPa 0,0 l/m 2,0 km/h (1 Bft) W-NW 1,00 h 4,4 UV-I 695 W/m 14,9 C 23,7 C 4,7 km/h (1 Bft)
19.07.2016 11:00 25,1 C 25,2 C 57 % 54 % 1020,9 hPa 0,0 l/m 2,8 km/h (1 Bft) W-NW 1,00 h 5,6 UV-I 745 W/m 15,2 C 25,2 C 6,1 km/h (2 Bft)
19.07.2016 12:00 25,2 C 26,5 C 56 % 50 % 1020,6 hPa 0,0 l/m 2,0 km/h (1 Bft) W 0,97 h 6,3 UV-I 840 W/m 15,1 C 26,5 C 5,6 km/h (1 Bft)
19.07.2016 13:00 25,5 C 26,9 C 56 % 48 % 1020,3 hPa 0,0 l/m 3,7 km/h (1 Bft) W-NW 1,00 h 6,2 UV-I 728 W/m 15,0 C 26,8 C 7,8 km/h (2 Bft)
19.07.2016 14:00 25,9 C 28,1 C 56 % 43 % 1019,9 hPa 0,0 l/m 4,5 km/h (1 Bft) W-NW 1,00 h 6,7 UV-I 826 W/m 14,2 C 28,0 C 9,9 km/h (2 Bft)
19.07.2016 15:00 26,1 C 28,5 C 56 % 42 % 1019,6 hPa 0,0 l/m 4,5 km/h (1 Bft) NW 1,00 h 5,3 UV-I 771 W/m 14,1 C 28,3 C 9,6 km/h (2 Bft)
19.07.2016 16:00 26,1 C 27,9 C 56 % 43 % 1019,2 hPa 0,0 l/m 3,8 km/h (1 Bft) N 0,85 h 3,5 UV-I 556 W/m 14,1 C 27,8 C 8,6 km/h (2 Bft)
19.07.2016 17:00 26,0 C 27,6 C 56 % 43 % 1018,9 hPa 0,0 l/m 3,7 km/h (1 Bft) N 1,00 h 2,4 UV-I 435 W/m 13,9 C 27,5 C 7,7 km/h (2 Bft)
19.07.2016 18:00 25,9 C 26,3 C 56 % 46 % 1018,6 hPa 0,0 l/m 2,1 km/h (1 Bft) N-NO 0,05 h 1,0 UV-I 71 W/m 13,7 C 26,2 C 4,9 km/h (1 Bft)
19.07.2016 19:00 25,8 C 24,6 C 55 % 52 % 1018,4 hPa 0,0 l/m 0,2 km/h (0 Bft) N 0,00 h 0,0 UV-I 28 W/m 13,9 C 24,6 C 0,7 km/h (0 Bft)
19.07.2016 20:00 25,6 C 23,5 C 55 % 55 % 1018,4 hPa 0,0 l/m 0,0 km/h (0 Bft) N 0,00 h 0,0 UV-I 16 W/m 14,0 C 23,5 C 0,2 km/h (0 Bft)
19.07.2016 21:00 25,6 C 21,3 C 55 % 69 % 1018,6 hPa 0,0 l/m 0,0 km/h (0 Bft) N 0,00 h 0,0 UV-I 5 W/m 15,4 C 21,3 C 0,0 km/h (0 Bft)
19.07.2016 22:00 25,5 C 18,9 C 56 % 78 % 1019,0 hPa 0,0 l/m 0,0 km/h (0 Bft) N 0,00 h 0,0 UV-I 0 W/m 15,0 C 18,9 C 0,0 km/h (0 Bft)
19.07.2016 23:00 25,4 C 17,6 C 57 % 82 % 1018,9 hPa 0,0 l/m 0,0 km/h (0 Bft) N 0,00 h 0,0 UV-I 0 W/m 14,5 C 17,6 C 0,0 km/h (0 Bft)
20.07.2016 00:00 25,3 C 16,4 C 57 % 86 % 1019,0 hPa 0,0 l/m 0,0 km/h (0 Bft) N 0,00 h 0,0 UV-I 0 W/m 14,1 C 16,4 C 0,0 km/h (0 Bft)
20.07.2016 01:00 25,3 C 16,0 C 58 % 86 % 1019,0 hPa 0,0 l/m 0,0 km/h (0 Bft) O-NO 0,00 h 0,0 UV-I 0 W/m 13,6 C 16,0 C 0,3 km/h (0 Bft)
20.07.2016 02:00 25,3 C 15,1 C 58 % 89 % 1018,9 hPa 0,0 l/m 0,0 km/h (0 Bft) N 0,00 h 0,0 UV-I 0 W/m 13,3 C 15,1 C 0,0 km/h (0 Bft)
20.07.2016 03:00 25,3 C 14,6 C 58 % 91 % 1018,8 hPa 0,0 l/m 0,0 km/h (0 Bft) N 0,00 h 0,0 UV-I 0 W/m 13,2 C 14,6 C 0,0 km/h (0 Bft)
20.07.2016 04:00 25,3 C 14,5 C 58 % 92 % 1018,6 hPa 0,0 l/m 0,0 km/h (0 Bft) N 0,00 h 0,0 UV-I 0 W/m 13,1 C 14,5 C 0,0 km/h (0 Bft)
20.07.2016 05:00 25,2 C 13,8 C 59 % 93 % 1018,6 hPa 0,0 l/m 0,0 km/h (0 Bft) N 0,00 h 0,0 UV-I 8 W/m 12,6 C 13,8 C 0,0 km/h (0 Bft)
20.07.2016 06:00 25,2 C 13,8 C 59 % 93 % 1018,5 hPa 0,0 l/m 0,0 km/h (0 Bft) N 0,00 h 0,0 UV-I 17 W/m 12,7 C 13,8 C 0,0 km/h (0 Bft)
20.07.2016 07:00 25,2 C 16,2 C 59 % 90 % 1018,3 hPa 0,0 l/m 0,2 km/h (0 Bft) O 0,50 h 0,9 UV-I 156 W/m 14,5 C 16,2 C 0,5 km/h (0 Bft)
20.07.2016 08:00 25,2 C 21,2 C 59 % 73 % 1017,9 hPa 0,0 l/m 0,3 km/h (0 Bft) O-NO 1,00 h 1,6 UV-I 413 W/m 16,1 C 21,2 C 0,9 km/h (0 Bft)
20.07.2016 09:00 25,2 C 23,6 C 59 % 63 % 1017,6 hPa 0,0 l/m 0,4 km/h (0 Bft) O 1,00 h 2,9 UV-I 567 W/m 16,2 C 23,6 C 1,5 km/h (1 Bft)
20.07.2016 10:00 25,2 C 25,6 C 59 % 55 % 1017,4 hPa 0,0 l/m 0,5 km/h (0 Bft) O-NO 1,00 h 4,5 UV-I 695 W/m 15,7 C 25,6 C 2,4 km/h (1 Bft)
20.07.2016 11:00 25,2 C 26,9 C 59 % 51 % 1016,9 hPa 0,0 l/m 1,1 km/h (1 Bft) S 1,00 h 5,7 UV-I 780 W/m 15,9 C 26,9 C 2,8 km/h (1 Bft)
20.07.2016 12:00 25,3 C 27,6 C 58 % 48 % 1016,6 hPa 0,0 l/m 1,5 km/h (1 Bft) S 1,00 h 6,6 UV-I 827 W/m 15,4 C 27,6 C 3,3 km/h (1 Bft)
20.07.2016 13:00 25,8 C 28,7 C 55 % 44 % 1016,2 hPa 0,0 l/m 1,9 km/h (1 Bft) W-NW 0,93 h 6,9 UV-I 844 W/m 15,1 C 28,6 C 4,7 km/h (1 Bft)
20.07.2016 14:00 26,1 C 28,8 C 54 % 41 % 1015,7 hPa 0,0 l/m 0,8 km/h (0 Bft) S-SO 0,93 h 5,7 UV-I 672 W/m 14,2 C 28,8 C 2,6 km/h (1 Bft)
20.07.2016 15:00 26,1 C 28,8 C 55 % 41 % 1015,3 hPa 0,0 l/m 2,4 km/h (1 Bft) SO 1,00 h 5,0 UV-I 768 W/m 14,3 C 28,8 C 6,0 km/h (2 Bft)
20.07.2016 16:00 26,3 C 27,8 C 56 % 43 % 1015,0 hPa 0,0 l/m 0,9 km/h (0 Bft) S 0,40 h 2,6 UV-I 242 W/m 14,0 C 27,8 C 2,5 km/h (1 Bft)
20.07.2016 17:00 26,0 C 28,7 C 56 % 41 % 1014,5 hPa 0,0 l/m 1,5 km/h (1 Bft) S 0,98 h 2,2 UV-I 421 W/m 14,1 C 28,7 C 3,3 km/h (1 Bft)
20.07.2016 18:00 26,2 C 28,1 C 55 % 41 % 1014,0 hPa 0,0 l/m 1,5 km/h (1 Bft) S-SO 0,07 h 1,0 UV-I 72 W/m 13,7 C 28,1 C 4,0 km/h (1 Bft)
20.07.2016 19:00 26,2 C 27,4 C 55 % 43 % 1013,7 hPa 0,0 l/m 0,5 km/h (0 Bft) S 0,00 h 0,6 UV-I 35 W/m 13,8 C 27,4 C 1,8 km/h (1 Bft)
20.07.2016 20:00 26,2 C 26,4 C 56 % 48 % 1013,7 hPa 0,0 l/m 0,0 km/h (0 Bft) SO 0,00 h 0,0 UV-I 14 W/m 14,3 C 26,4 C 0,3 km/h (0 Bft)
20.07.2016 21:00 26,1 C 23,5 C 56 % 60 % 1013,9 hPa 0,0 l/m 0,0 km/h (0 Bft) O-NO 0,00 h 0,0 UV-I 0 W/m 15,2 C 23,5 C 0,4 km/h (0 Bft)
20.07.2016 22:00 25,9 C 20,7 C 56 % 74 % 1014,1 hPa 0,0 l/m 0,0 km/h (0 Bft) N 0,00 h 0,0 UV-I 0 W/m 15,9 C 20,7 C 0,0 km/h (0 Bft)
20.07.2016 23:00 25,8 C 18,4 C 57 % 83 % 1014,2 hPa 0,0 l/m 0,0 km/h (0 Bft) N 0,00 h 0,0 UV-I 0 W/m 15,5 C 18,4 C 0,0 km/h (0 Bft)
21.07.2016 00:00 25,7 C 17,3 C 57 % 87 % 1014,0 hPa 0,0 l/m 0,0 km/h (0 Bft) N 0,00 h 0,0 UV-I 0 W/m 15,0 C 17,3 C 0,0 km/h (0 Bft)
21.07.2016 01:00 25,7 C 16,2 C 57 % 89 % 1013,8 hPa 0,0 l/m 0,0 km/h (0 Bft) N 0,00 h 0,0 UV-I 0 W/m 14,4 C 16,2 C 0,0 km/h (0 Bft)
21.07.2016 02:00 25,8 C 15,8 C 58 % 90 % 1013,6 hPa 0,0 l/m 0,0 km/h (0 Bft) N 0,00 h 0,0 UV-I 0 W/m 14,1 C 15,8 C 0,0 km/h (0 Bft)
21.07.2016 03:00 25,8 C 15,1 C 58 % 92 % 1013,3 hPa 0,0 l/m 0,0 km/h (0 Bft) N 0,00 h 0,0 UV-I 0 W/m 13,7 C 15,1 C 0,0 km/h (0 Bft)
21.07.2016 04:00 25,7 C 14,7 C 58 % 93 % 1012,8 hPa 0,0 l/m 0,0 km/h (0 Bft) N 0,00 h 0,0 UV-I 0 W/m 13,6 C 14,7 C 0,0 km/h (0 Bft)
21.07.2016 05:00 25,6 C 14,7 C 59 % 93 % 1012,7 hPa 0,0 l/m 0,0 km/h (0 Bft) N 0,00 h 0,0 UV-I 5 W/m 13,5 C 14,7 C 0,0 km/h (0 Bft)
21.07.2016 06:00 25,6 C 14,7 C 59 % 93 % 1012,9 hPa 0,0 l/m 0,0 km/h (0 Bft) N 0,00 h 0,0 UV-I 44 W/m 13,7 C 14,7 C 0,0 km/h (0 Bft)
21.07.2016 07:00 25,5 C 17,2 C 59 % 90 % 1013,2 hPa 0,0 l/m 2,7 km/h (1 Bft) NW 0,00 h 0,5 UV-I 90 W/m 15,5 C 16,8 C 4,4 km/h (1 Bft)
21.07.2016 08:00 25,6 C 18,1 C 59 % 86 % 1015,1 hPa 0,2 l/m 1,4 km/h (1 Bft) W-SW 0,00 h 0,5 UV-I 41 W/m 15,7 C 18,0 C 3,1 km/h (1 Bft)
21.07.2016 09:00 25,7 C 18,1 C 59 % 90 % 1015,1 hPa 0,2 l/m 0,0 km/h (0 Bft) N 0,00 h 0,6 UV-I 74 W/m 16,4 C 18,1 C 0,0 km/h (0 Bft)
21.07.2016 10:00 25,5 C 18,6 C 59 % 89 % 1015,1 hPa 0,0 l/m 0,0 km/h (0 Bft) O-SO 0,08 h 1,0 UV-I 115 W/m 16,8 C 18,6 C 0,1 km/h (0 Bft)
21.07.2016 11:00 25,2 C 19,2 C 61 % 89 % 1014,5 hPa 0,2 l/m 0,1 km/h (0 Bft) O 0,25 h 1,4 UV-I 137 W/m 17,3 C 19,2 C 0,2 km/h (0 Bft)
21.07.2016 12:00 25,1 C 20,9 C 62 % 85 % 1014,0 hPa 0,0 l/m 0,4 km/h (0 Bft) W 1,00 h 3,2 UV-I 324 W/m 18,3 C 20,9 C 0,8 km/h (0 Bft)
21.07.2016 13:00 25,3 C 21,2 C 61 % 82 % 1014,2 hPa 0,0 l/m 3,9 km/h (1 Bft) W 0,65 h 1,9 UV-I 199 W/m 18,0 C 21,2 C 6,6 km/h (2 Bft)
21.07.2016 14:00 25,4 C 20,8 C 61 % 83 % 1014,4 hPa 0,0 l/m 3,5 km/h (1 Bft) NW 0,40 h 1,5 UV-I 155 W/m 17,8 C 20,8 C 7,6 km/h (2 Bft)
21.07.2016 15:00 25,8 C 20,8 C 61 % 82 % 1014,4 hPa 0,0 l/m 4,0 km/h (1 Bft) NW 0,73 h 1,7 UV-I 192 W/m 17,5 C 20,7 C 7,9 km/h (2 Bft)
21.07.2016 16:00 26,1 C 21,2 C 60 % 80 % 1014,4 hPa 0,0 l/m 4,2 km/h (1 Bft) NW 0,87 h 1,9 UV-I 262 W/m 17,6 C 21,0 C 8,6 km/h (2 Bft)
21.07.2016 17:00 25,9 C 22,2 C 60 % 76 % 1014,0 hPa 0,0 l/m 5,9 km/h (2 Bft) NW 0,90 h 1,9 UV-I 370 W/m 17,7 C 22,0 C 11,0 km/h (2 Bft)
21.07.2016 18:00 25,9 C 21,3 C 60 % 77 % 1014,0 hPa 0,0 l/m 3,8 km/h (1 Bft) N 0,03 h 0,9 UV-I 103 W/m 17,1 C 21,2 C 8,9 km/h (2 Bft)
21.07.2016 19:00 26,1 C 20,4 C 60 % 79 % 1014,1 hPa 0,0 l/m 1,7 km/h (1 Bft) N 0,00 h 0,6 UV-I 83 W/m 16,7 C 20,4 C 3,6 km/h (1 Bft)
21.07.2016 20:00 25,9 C 19,7 C 60 % 83 % 1014,3 hPa 0,0 l/m 0,0 km/h (0 Bft) N 0,00 h 0,0 UV-I 13 W/m 16,7 C 19,7 C 0,0 km/h (0 Bft)
21.07.2016 21:00 26,1 C 19,3 C 60 % 85 % 1014,8 hPa 0,0 l/m 0,0 km/h (0 Bft) N 0,00 h 0,0 UV-I 0 W/m 16,8 C 19,3 C 0,0 km/h (0 Bft)
21.07.2016 22:00 26,1 C 18,9 C 60 % 88 % 1015,2 hPa 0,0 l/m 0,0 km/h (0 Bft) N 0,00 h 0,0 UV-I 0 W/m 16,9 C 18,9 C 0,0 km/h (0 Bft)
21.07.2016 23:00 25,8 C 18,3 C 60 % 90 % 1015,3 hPa 0,0 l/m 0,0 km/h (0 Bft) N 0,00 h 0,0 UV-I 0 W/m 16,6 C 18,3 C 0,0 km/h (0 Bft)
22.07.2016 00:00 25,7 C 17,7 C 61 % 92 % 1015,2 hPa 0,0 l/m 0,0 km/h (0 Bft) N 0,00 h 0,0 UV-I 0 W/m 16,3 C 17,7 C 0,0 km/h (0 Bft)
22.07.2016 01:00 25,6 C 17,1 C 61 % 93 % 1015,3 hPa 0,0 l/m 0,0 km/h (0 Bft) N 0,00 h 0,0 UV-I 0 W/m 15,9 C 17,1 C 0,0 km/h (0 Bft)
22.07.2016 02:00 25,6 C 16,7 C 61 % 93 % 1015,3 hPa 0,0 l/m 0,0 km/h (0 Bft) N 0,00 h 0,0 UV-I 0 W/m 15,5 C 16,7 C 0,0 km/h (0 Bft)
22.07.2016 03:00 25,6 C 16,0 C 61 % 93 % 1015,4 hPa 0,0 l/m 0,0 km/h (0 Bft) N 0,00 h 0,0 UV-I 0 W/m 14,8 C 16,0 C 0,0 km/h (0 Bft)
22.07.2016 04:00 25,6 C 15,6 C 61 % 94 % 1015,3 hPa 0,0 l/m 0,0 km/h (0 Bft) N 0,00 h 0,0 UV-I 0 W/m 14,7 C 15,6 C 0,1 km/h (0 Bft)
22.07.2016 05:00 25,5 C 15,5 C 62 % 95 % 1015,2 hPa 0,0 l/m 0,0 km/h (0 Bft) N 0,00 h 0,0 UV-I 6 W/m 14,7 C 15,5 C 0,0 km/h (0 Bft)
22.07.2016 06:00 25,4 C 15,5 C 62 % 96 % 1015,4 hPa 0,0 l/m 0,0 km/h (0 Bft) N 0,00 h 0,0 UV-I 28 W/m 14,9 C 15,5 C 0,0 km/h (0 Bft)
22.07.2016 07:00 25,4 C 16,3 C 62 % 97 % 1015,5 hPa 0,0 l/m 0,0 km/h (0 Bft) N 0,00 h 0,6 UV-I 65 W/m 15,7 C 16,3 C 0,0 km/h (0 Bft)
22.07.2016 08:00 25,4 C 17,0 C 62 % 95 % 1015,7 hPa 0,0 l/m 0,3 km/h (0 Bft) O-SO 0,43 h 0,9 UV-I 153 W/m 16,2 C 17,0 C 0,6 km/h (0 Bft)
22.07.2016 09:00 25,5 C 19,1 C 62 % 88 % 1016,1 hPa 0,0 l/m 0,1 km/h (0 Bft) SO 1,00 h 2,5 UV-I 481 W/m 17,0 C 19,1 C 0,3 km/h (0 Bft)
22.07.2016 10:00 25,4 C 22,8 C 62 % 74 % 1015,6 hPa 0,0 l/m 1,3 km/h (1 Bft) O-NO 1,00 h 4,1 UV-I 668 W/m 17,8 C 22,8 C 3,5 km/h (1 Bft)
22.07.2016 11:00 25,4 C 25,3 C 61 % 64 % 1015,1 hPa 0,0 l/m 1,9 km/h (1 Bft) O-NO 1,00 h 5,2 UV-I 776 W/m 18,0 C 25,3 C 5,6 km/h (1 Bft)
22.07.2016 12:00 25,7 C 26,3 C 61 % 60 % 1014,8 hPa 0,0 l/m 3,9 km/h (1 Bft) N 1,00 h 5,7 UV-I 767 W/m 17,7 C 26,2 C 8,9 km/h (2 Bft)
22.07.2016 13:00 25,7 C 25,5 C 61 % 61 % 1014,8 hPa 0,0 l/m 3,1 km/h (1 Bft) N-NO 1,00 h 5,0 UV-I 498 W/m 17,4 C 25,5 C 7,2 km/h (2 Bft)
22.07.2016 14:00 25,9 C 26,4 C 61 % 57 % 1014,5 hPa 0,0 l/m 3,8 km/h (1 Bft) O-NO 1,00 h 5,7 UV-I 705 W/m 17,2 C 26,3 C 10,4 km/h (2 Bft)
22.07.2016 15:00 26,1 C 26,9 C 61 % 53 % 1014,0 hPa 0,0 l/m 2,8 km/h (1 Bft) O-NO 1,00 h 4,9 UV-I 719 W/m 16,6 C 26,9 C 7,0 km/h (2 Bft)
22.07.2016 16:00 26,5 C 27,0 C 59 % 53 % 1013,6 hPa 0,0 l/m 2,9 km/h (1 Bft) O-NO 0,88 h 3,3 UV-I 563 W/m 16,7 C 26,9 C 7,2 km/h (2 Bft)
22.07.2016 17:00 26,3 C 26,2 C 60 % 54 % 1013,5 hPa 0,0 l/m 1,6 km/h (1 Bft) SO 0,55 h 1,7 UV-I 259 W/m 16,2 C 26,2 C 4,0 km/h (1 Bft)
22.07.2016 18:00 26,2 C 25,9 C 60 % 55 % 1013,3 hPa 0,0 l/m 1,7 km/h (1 Bft) SO 0,07 h 0,9 UV-I 85 W/m 16,1 C 25,9 C 4,2 km/h (1 Bft)
22.07.2016 19:00 26,5 C 25,1 C 60 % 60 % 1013,6 hPa 0,0 l/m 0,3 km/h (0 Bft) O 0,00 h 0,5 UV-I 51 W/m 16,7 C 25,1 C 1,1 km/h (1 Bft)
22.07.2016 20:00 26,5 C 23,8 C 60 % 66 % 1013,9 hPa 0,0 l/m 0,0 km/h (0 Bft) N 0,00 h 0,0 UV-I 20 W/m 17,0 C 23,8 C 0,0 km/h (0 Bft)
22.07.2016 21:00 26,3 C 22,3 C 60 % 72 % 1014,3 hPa 0,0 l/m 0,0 km/h (0 Bft) N 0,00 h 0,0 UV-I 0 W/m 17,0 C 22,3 C 0,0 km/h (0 Bft)
22.07.2016 22:00 26,2 C 20,7 C 60 % 80 % 1014,2 hPa 0,0 l/m 0,0 km/h (0 Bft) N 0,00 h 0,0 UV-I 0 W/m 17,0 C 20,7 C 0,0 km/h (0 Bft)
22.07.2016 23:00 26,0 C 20,1 C 60 % 80 % 1014,5 hPa 0,0 l/m 0,1 km/h (0 Bft) O-NO 0,00 h 0,0 UV-I 0 W/m 16,5 C 20,1 C 0,3 km/h (0 Bft)
23.07.2016 00:00 25,9 C 20,5 C 61 % 77 % 1014,5 hPa 0,0 l/m 3,2 km/h (1 Bft) O-NO 0,00 h 0,0 UV-I 0 W/m 16,4 C 20,4 C 7,4 km/h (2 Bft)
23.07.2016 01:00 25,8 C 20,5 C 61 % 78 % 1014,5 hPa 0,0 l/m 0,2 km/h (0 Bft) O-NO 0,00 h 0,0 UV-I 0 W/m 16,5 C 20,5 C 1,1 km/h (1 Bft)
23.07.2016 02:00 25,8 C 20,0 C 61 % 80 % 1014,2 hPa 0,0 l/m 0,4 km/h (0 Bft) O-NO 0,00 h 0,0 UV-I 0 W/m 16,4 C 20,0 C 1,2 km/h (1 Bft)
23.07.2016 03:00 25,8 C 19,3 C 61 % 82 % 1014,2 hPa 0,0 l/m 0,2 km/h (0 Bft) N-NO 0,00 h 0,0 UV-I 0 W/m 16,1 C 19,3 C 0,5 km/h (0 Bft)
23.07.2016 04:00 25,8 C 18,7 C 61 % 83 % 1014,2 hPa 0,0 l/m 0,0 km/h (0 Bft) N 0,00 h 0,0 UV-I 0 W/m 15,8 C 18,7 C 0,1 km/h (0 Bft)
23.07.2016 05:00 25,8 C 18,3 C 61 % 85 % 1014,2 hPa 0,0 l/m 0,1 km/h (0 Bft) N-NO 0,00 h 0,0 UV-I 8 W/m 15,7 C 18,3 C 0,6 km/h (0 Bft)
23.07.2016 06:00 25,7 C 18,3 C 62 % 86 % 1014,3 hPa 0,0 l/m 0,1 km/h (0 Bft) N-NO 0,00 h 0,0 UV-I 26 W/m 16,0 C 18,3 C 0,6 km/h (0 Bft)
23.07.2016 07:00 25,7 C 19,2 C 62 % 84 % 1014,3 hPa 0,0 l/m 0,9 km/h (0 Bft) O-NO 0,00 h 0,6 UV-I 68 W/m 16,4 C 19,2 C 3,0 km/h (1 Bft)
23.07.2016 08:00 25,7 C 20,6 C 62 % 80 % 1014,6 hPa 0,0 l/m 0,4 km/h (0 Bft) NO 0,15 h 0,9 UV-I 127 W/m 17,1 C 20,6 C 1,5 km/h (1 Bft)
23.07.2016 09:00 25,8 C 21,9 C 62 % 76 % 1014,7 hPa 0,0 l/m 1,5 km/h (1 Bft) O-NO 1,00 h 1,8 UV-I 242 W/m 17,6 C 21,9 C 3,3 km/h (1 Bft)
23.07.2016 10:00 25,8 C 23,0 C 61 % 72 % 1014,8 hPa 0,0 l/m 0,5 km/h (0 Bft) O-SO 1,00 h 2,4 UV-I 335 W/m 17,7 C 23,0 C 1,5 km/h (1 Bft)
23.07.2016 11:00 25,9 C 23,5 C 61 % 72 % 1015,0 hPa 0,0 l/m 0,5 km/h (0 Bft) S 0,97 h 2,2 UV-I 251 W/m 18,2 C 23,5 C 1,5 km/h (1 Bft)
23.07.2016 12:00 25,9 C 23,3 C 62 % 76 % 1014,8 hPa 0,0 l/m 0,2 km/h (0 Bft) SO 1,00 h 2,7 UV-I 291 W/m 18,9 C 23,3 C 0,7 km/h (0 Bft)
23.07.2016 13:00 26,1 C 23,6 C 62 % 75 % 1014,8 hPa 2,4 l/m 4,0 km/h (1 Bft) W 0,60 h 2,1 UV-I 172 W/m 18,9 C 23,4 C 7,5 km/h (2 Bft)
23.07.2016 14:00 26,3 C 20,0 C 62 % 93 % 1015,2 hPa 4,6 l/m 0,3 km/h (0 Bft) S 0,12 h 1,1 UV-I 101 W/m 18,9 C 20,0 C 0,8 km/h (0 Bft)
23.07.2016 15:00 26,2 C 20,2 C 63 % 93 % 1015,5 hPa 0,2 l/m 1,6 km/h (1 Bft) N-NW 0,37 h 1,8 UV-I 242 W/m 19,0 C 20,2 C 4,2 km/h (1 Bft)
23.07.2016 16:00 26,0 C 22,0 C 63 % 87 % 1015,4 hPa 0,0 l/m 2,9 km/h (1 Bft) W-NW 1,00 h 2,9 UV-I 507 W/m 19,7 C 22,0 C 6,5 km/h (2 Bft)
23.07.2016 17:00 25,9 C 21,7 C 63 % 87 % 1015,5 hPa 0,0 l/m 3,7 km/h (1 Bft) N 1,00 h 1,6 UV-I 274 W/m 19,3 C 21,6 C 7,9 km/h (2 Bft)
23.07.2016 18:00 25,8 C 21,5 C 63 % 84 % 1015,3 hPa 0,0 l/m 5,5 km/h (1 Bft) N 0,52 h 0,9 UV-I 164 W/m 18,8 C 21,2 C 11,6 km/h (2 Bft)
23.07.2016 19:00 25,9 C 20,8 C 63 % 86 % 1014,9 hPa 0,0 l/m 3,5 km/h (1 Bft) N-NO 0,00 h 0,6 UV-I 71 W/m 18,4 C 20,8 C 8,2 km/h (2 Bft)
23.07.2016 20:00 26,0 C 19,9 C 63 % 89 % 1015,1 hPa 0,0 l/m 0,0 km/h (0 Bft) N 0,00 h 0,0 UV-I 23 W/m 18,1 C 19,9 C 0,2 km/h (0 Bft)
23.07.2016 21:00 26,0 C 19,4 C 63 % 92 % 1015,8 hPa 0,0 l/m 0,0 km/h (0 Bft) N 0,00 h 0,0 UV-I 6 W/m 18,0 C 19,4 C 0,0 km/h (0 Bft)
23.07.2016 22:00 26,2 C 18,8 C 63 % 94 % 1016,1 hPa 0,0 l/m 0,1 km/h (0 Bft) N 0,00 h 0,0 UV-I 0 W/m 17,8 C 18,8 C 0,2 km/h (0 Bft)
23.07.2016 23:00 26,1 C 18,6 C 63 % 95 % 1016,4 hPa 0,0 l/m 0,0 km/h (0 Bft) N 0,00 h 0,0 UV-I 0 W/m 17,8 C 18,6 C 0,0 km/h (0 Bft)
24.07.2016 00:00 26,1 C 18,3 C 64 % 95 % 1016,5 hPa 0,0 l/m 0,0 km/h (0 Bft) N 0,00 h 0,0 UV-I 0 W/m 17,5 C 18,3 C 0,0 km/h (0 Bft)
24.07.2016 01:00 26,1 C 17,8 C 64 % 96 % 1016,7 hPa 0,0 l/m 0,0 km/h (0 Bft) N 0,00 h 0,0 UV-I 0 W/m 17,2 C 17,8 C 0,0 km/h (0 Bft)
24.07.2016 02:00 26,0 C 17,6 C 64 % 96 % 1016,6 hPa 0,0 l/m 0,0 km/h (0 Bft) N 0,00 h 0,0 UV-I 0 W/m 17,0 C 17,6 C 0,0 km/h (0 Bft)
24.07.2016 03:00 26,0 C 17,6 C 64 % 97 % 1016,7 hPa 0,0 l/m 0,0 km/h (0 Bft) N 0,00 h 0,0 UV-I 0 W/m 17,1 C 17,6 C 0,0 km/h (0 Bft)
24.07.2016 04:00 26,0 C 17,5 C 64 % 97 % 1016,7 hPa 0,0 l/m 0,0 km/h (0 Bft) N 0,00 h 0,0 UV-I 0 W/m 17,0 C 17,5 C 0,0 km/h (0 Bft)
24.07.2016 05:00 26,0 C 17,3 C 64 % 97 % 1016,7 hPa 0,0 l/m 0,0 km/h (0 Bft) N 0,00 h 0,0 UV-I 7 W/m 16,8 C 17,3 C 0,0 km/h (0 Bft)
24.07.2016 06:00 26,0 C 17,2 C 64 % 97 % 1016,8 hPa 0,0 l/m 0,0 km/h (0 Bft) W-NW 0,00 h 0,0 UV-I 30 W/m 16,7 C 17,2 C 0,2 km/h (0 Bft)
24.07.2016 07:00 25,9 C 17,9 C 64 % 96 % 1017,0 hPa 0,0 l/m 0,4 km/h (0 Bft) NW 0,07 h 0,6 UV-I 110 W/m 17,3 C 17,9 C 0,9 km/h (0 Bft)
24.07.2016 08:00 26,1 C 19,2 C 64 % 91 % 1017,1 hPa 0,0 l/m 0,4 km/h (0 Bft) N-NO 0,97 h 1,2 UV-I 252 W/m 17,7 C 19,2 C 1,1 km/h (1 Bft)
24.07.2016 09:00 26,2 C 21,2 C 64 % 85 % 1017,0 hPa 0,0 l/m 0,0 km/h (0 Bft) W-NW 1,00 h 2,4 UV-I 469 W/m 18,5 C 21,2 C 0,2 km/h (0 Bft)
24.07.2016 10:00 26,2 C 23,0 C 64 % 78 % 1017,0 hPa 0,0 l/m 0,9 km/h (0 Bft) N-NW 1,00 h 3,5 UV-I 629 W/m 19,0 C 23,0 C 2,4 km/h (1 Bft)
24.07.2016 11:00 26,1 C 24,3 C 64 % 74 % 1016,9 hPa 0,0 l/m 1,5 km/h (1 Bft) S 1,00 h 3,8 UV-I 538 W/m 19,3 C 24,3 C 3,0 km/h (1 Bft)
24.07.2016 12:00 26,1 C 25,0 C 64 % 68 % 1016,5 hPa 0,0 l/m 2,2 km/h (1 Bft) W 1,00 h 4,2 UV-I 466 W/m 18,7 C 25,0 C 4,7 km/h (1 Bft)
24.07.2016 13:00 26,1 C 23,3 C 64 % 78 % 1016,7 hPa 6,4 l/m 2,7 km/h (1 Bft) W-NW 0,33 h 2,1 UV-I 201 W/m 19,2 C 23,3 C 6,5 km/h (2 Bft)
24.07.2016 14:00 26,1 C 20,2 C 64 % 92 % 1017,2 hPa 2,0 l/m 0,6 km/h (0 Bft) N 0,55 h 1,4 UV-I 154 W/m 18,8 C 20,2 C 1,8 km/h (1 Bft)
24.07.2016 15:00 26,2 C 19,8 C 65 % 93 % 1017,3 hPa 0,2 l/m 0,6 km/h (0 Bft) SO 0,00 h 0,8 UV-I 90 W/m 18,6 C 19,8 C 1,9 km/h (1 Bft)
24.07.2016 16:00 26,1 C 20,0 C 65 % 94 % 1017,2 hPa 0,2 l/m 0,6 km/h (0 Bft) O-NO 0,63 h 1,2 UV-I 173 W/m 19,0 C 20,0 C 1,9 km/h (1 Bft)
24.07.2016 17:00 26,3 C 21,3 C 65 % 91 % 1016,8 hPa 0,0 l/m 0,4 km/h (0 Bft) O-NO 0,72 h 1,7 UV-I 252 W/m 19,8 C 21,3 C 1,0 km/h (0 Bft)
24.07.2016 18:00 26,1 C 21,8 C 66 % 88 % 1016,8 hPa 0,0 l/m 0,7 km/h (0 Bft) N-NO 0,23 h 0,9 UV-I 141 W/m 19,7 C 21,8 C 1,5 km/h (1 Bft)
24.07.2016 19:00 26,3 C 21,5 C 66 % 86 % 1016,8 hPa 0,0 l/m 0,3 km/h (0 Bft) N 0,00 h 0,5 UV-I 72 W/m 19,2 C 21,5 C 0,6 km/h (0 Bft)
24.07.2016 20:00 26,0 C 20,6 C 66 % 89 % 1016,9 hPa 0,0 l/m 0,4 km/h (0 Bft) O-NO 0,00 h 0,0 UV-I 24 W/m 18,8 C 20,6 C 0,9 km/h (0 Bft)
24.07.2016 21:00 26,0 C 19,3 C 66 % 94 % 1017,1 hPa 0,0 l/m 0,0 km/h (0 Bft) N 0,00 h 0,0 UV-I 5 W/m 18,2 C 19,3 C 0,0 km/h (0 Bft)
24.07.2016 22:00 26,2 C 18,8 C 65 % 95 % 1017,4 hPa 0,0 l/m 0,0 km/h (0 Bft) N 0,00 h 0,0 UV-I 0 W/m 17,9 C 18,8 C 0,0 km/h (0 Bft)
24.07.2016 23:00 26,0 C 18,2 C 65 % 96 % 1017,4 hPa 0,0 l/m 0,0 km/h (0 Bft) N 0,00 h 0,0 UV-I 0 W/m 17,5 C 18,2 C 0,0 km/h (0 Bft)
Min-Datum _ 18.07.16 19.07.16 20.07.16 18.07.16 21.07.16 - 18.07.16 - - - - 18.07.16 19.07.16 18.07.16
_ Min-Zeit 02:55 05:36 14:17 13:06 05:29 - 00:00 - - - - 13:06 05:36 00:00
Minimum _ 24,7 C 12,1 C 53 % 37 % 1012,6 hPa - 0,0 km/h (0 Bft) - - - - 8,8 C 12,1 C 0,0 km/h (0 Bft)
Max-Datum _ 22.07.16 20.07.16 24.07.16 19.07.16 19.07.16 24.07.16 23.07.16 - 18.07.16 19.07.16 23.07.16 23.07.16 20.07.16 23.07.16
_ Max-Zeit 16:28 14:39 18:01 07:33 08:05 13:55 13:45 - 13:59 13:49 12:59 12:56 14:39 13:45
Maximum _ 26,7 C 29,5 C 66 % 97 % 1021,5 hPa 6,4 l/m 17,7 km/h
W (3 Bft)
- 0,03 h 7,6 UV-I 1136 W/m 20,5 C 29,5 C 29,0 km/h
S-SO (5 Bft)
Durchschnitt _ 25,7 C 20,5 C 60 % 77 % 1016,7 hPa #16,6 l/m 1,1 km/h (1 Bft) NW #58:07 h 2,7 UV-I 296 W/m 15,8 C 20,5 C 2,5 km/h (1 Bft)